createdAt,value
2023-02-04T00:00:13.687Z,103321.75
2023-02-04T00:02:41.607Z,103327.00
2023-02-04T00:05:09.944Z,103323.50
2023-02-04T00:07:37.136Z,103324.38
2023-02-04T00:10:06.306Z,103326.09
2023-02-04T00:12:33.978Z,103327.00
2023-02-04T00:15:01.083Z,103328.69
2023-02-04T00:17:28.134Z,103333.06
2023-02-04T00:19:54.850Z,103332.22
2023-02-04T00:22:21.634Z,103334.84
2023-02-04T00:24:50.083Z,103331.34
2023-02-04T00:27:17.121Z,103335.72
2023-02-04T00:29:44.054Z,103340.97
2023-02-04T00:32:10.843Z,103346.19
2023-02-04T00:34:37.614Z,103342.75
2023-02-04T00:37:04.378Z,103345.38
2023-02-04T00:39:31.098Z,103343.66
2023-02-04T00:41:57.812Z,103345.38
2023-02-04T00:44:24.566Z,103352.34
2023-02-04T00:46:51.320Z,103349.75
2023-02-04T00:49:18.075Z,103338.44
2023-02-04T00:51:46.827Z,103352.38
2023-02-04T00:54:16.147Z,103342.75
2023-02-04T00:56:44.119Z,103353.22
2023-02-04T00:59:11.476Z,103350.63
2023-02-04T01:01:38.351Z,103350.69
2023-02-04T01:04:05.438Z,103347.16
2023-02-04T01:06:32.735Z,103346.34
2023-02-04T01:08:59.548Z,103342.84
2023-02-04T01:11:26.442Z,103335.00
2023-02-04T01:13:53.306Z,103330.66
2023-02-04T01:16:20.266Z,103335.91
2023-02-04T01:18:47.103Z,103342.88
2023-02-04T01:21:14.102Z,103337.63
2023-02-04T01:23:40.940Z,103343.72
2023-02-04T01:26:07.840Z,103329.78
2023-02-04T01:28:34.641Z,103338.47
2023-02-04T01:31:01.658Z,103330.63
2023-02-04T01:33:28.437Z,103332.38
2023-02-04T01:35:55.252Z,103346.31
2023-02-04T01:38:22.046Z,103335.84
2023-02-04T01:40:48.872Z,103328.00
2023-02-04T01:43:17.973Z,103331.47
2023-02-04T01:45:46.649Z,103321.91
2023-02-04T01:48:20.396Z,103321.00
2023-02-04T01:50:52.786Z,103317.53
2023-02-04T01:53:26.157Z,103325.41
2023-02-04T01:55:53.140Z,103314.09
2023-02-04T01:58:20.159Z,103325.38
2023-02-04T02:00:47.037Z,103323.69
2023-02-04T02:03:14.090Z,103321.94
2023-02-04T02:05:45.433Z,103325.41
2023-02-04T02:08:12.931Z,103329.81
2023-02-04T02:10:42.244Z,103325.41
2023-02-04T02:13:12.663Z,103327.16
2023-02-04T02:15:39.991Z,103327.16
2023-02-04T02:18:07.355Z,103326.25
2023-02-04T02:20:34.380Z,103328.00
2023-02-04T02:23:38.337Z,103342.00
2023-02-04T02:26:05.295Z,103334.97
2023-02-04T02:28:32.079Z,103329.78
2023-02-04T02:30:58.880Z,103334.09
2023-02-04T02:33:26.509Z,103340.22
2023-02-04T02:35:53.268Z,103341.09
2023-02-04T02:38:20.677Z,103333.25
2023-02-04T02:40:49.024Z,103340.22
2023-02-04T02:43:23.225Z,103343.72
2023-02-04T02:45:50.495Z,103343.72
2023-02-04T02:48:18.166Z,103337.63
2023-02-04T02:50:45.485Z,103338.47
2023-02-04T02:53:14.710Z,103333.22
2023-02-04T02:55:41.984Z,103328.00
2023-02-04T02:58:32.460Z,103320.16
2023-02-04T03:01:08.952Z,103322.78
2023-02-04T03:03:39.033Z,103321.00
2023-02-04T03:06:14.281Z,103308.84
2023-02-04T03:08:42.618Z,103314.06
2023-02-04T03:11:10.079Z,103310.56
2023-02-04T03:13:37.674Z,103322.75
2023-02-04T03:16:05.874Z,103319.28
2023-02-04T03:18:32.744Z,103321.00
2023-02-04T03:20:59.638Z,103321.91
2023-02-04T03:23:27.534Z,103321.00
2023-02-04T03:25:54.570Z,103316.69
2023-02-04T03:28:21.301Z,103309.69
2023-02-04T03:30:53.918Z,103306.25
2023-02-04T03:33:20.825Z,103309.69
2023-02-04T03:35:47.567Z,103314.94
2023-02-04T03:38:14.334Z,103313.22
2023-02-04T03:40:41.052Z,103303.59
2023-02-04T03:43:07.744Z,103307.06
2023-02-04T03:45:44.676Z,103307.94
2023-02-04T03:48:12.378Z,103303.59
2023-02-04T03:50:39.130Z,103303.59
2023-02-04T03:53:05.860Z,103301.84
2023-02-04T03:55:33.149Z,103307.06
2023-02-04T03:58:00.175Z,103294.03
2023-02-04T04:00:26.990Z,103305.31
2023-02-04T04:02:54.037Z,103299.25
2023-02-04T04:05:20.859Z,103304.44
2023-02-04T04:07:47.592Z,103300.94
2023-02-04T04:10:14.479Z,103296.56
2023-02-04T04:12:41.297Z,103300.03
2023-02-04T04:15:08.664Z,103298.25
2023-02-04T04:17:35.420Z,103302.63
2023-02-04T04:20:02.352Z,103315.72
2023-02-04T04:22:29.275Z,103309.63
2023-02-04T04:24:55.999Z,103314.78
2023-02-04T04:27:22.855Z,103305.22
2023-02-04T04:29:49.572Z,103315.69
2023-02-04T04:32:16.312Z,103306.06
2023-02-04T04:34:43.149Z,103316.53
2023-02-04T04:37:09.876Z,103305.22
2023-02-04T04:39:37.417Z,103313.94
2023-02-04T04:42:04.298Z,103323.50
2023-02-04T04:44:31.010Z,103322.63
2023-02-04T04:46:57.846Z,103322.66
2023-02-04T04:49:24.860Z,103323.56
2023-02-04T04:51:51.598Z,103301.88
2023-02-04T04:54:18.387Z,103324.44
2023-02-04T04:56:45.151Z,103314.88
2023-02-04T04:59:11.870Z,103320.97
2023-02-04T05:01:39.195Z,103323.59
2023-02-04T05:04:05.951Z,103320.13
2023-02-04T05:06:32.717Z,103323.63
2023-02-04T05:08:59.428Z,103320.13
2023-02-04T05:11:26.201Z,103319.31
2023-02-04T05:13:52.988Z,103323.63
2023-02-04T05:16:19.835Z,103307.94
2023-02-04T05:18:46.832Z,103316.69
2023-02-04T05:21:13.599Z,103315.78
2023-02-04T05:23:40.309Z,103311.44
2023-02-04T05:26:07.127Z,103318.41
2023-02-04T05:28:33.872Z,103325.38
2023-02-04T05:31:00.666Z,103321.00
2023-02-04T05:33:27.497Z,103316.59
2023-02-04T05:35:54.185Z,103319.28
2023-02-04T05:38:21.009Z,103309.66
2023-02-04T05:40:47.785Z,103308.81
2023-02-04T05:43:14.556Z,103314.03
2023-02-04T05:45:41.348Z,103314.06
2023-02-04T05:48:08.154Z,103313.16
2023-02-04T05:50:34.889Z,103314.06
2023-02-04T05:53:01.611Z,103313.16
2023-02-04T05:55:28.360Z,103306.22
2023-02-04T05:57:55.108Z,103314.06
2023-02-04T06:00:22.047Z,103314.03
2023-02-04T06:02:48.795Z,103315.75
2023-02-04T06:05:15.560Z,103318.38
2023-02-04T06:07:42.354Z,103315.78
2023-02-04T06:10:10.280Z,103314.91
2023-02-04T06:12:37.000Z,103312.31
2023-02-04T06:15:04.061Z,103312.31
2023-02-04T06:17:30.918Z,103311.44
2023-02-04T06:19:57.622Z,103308.84
2023-02-04T06:22:26.040Z,103309.72
2023-02-04T06:24:52.885Z,103306.25
2023-02-04T06:27:23.470Z,103308.00
2023-02-04T06:29:52.375Z,103280.22
2023-02-04T06:32:20.179Z,103304.50
2023-02-04T06:34:46.971Z,103306.25
2023-02-04T06:37:13.971Z,103308.03
2023-02-04T06:39:40.727Z,103311.50
2023-02-04T06:42:07.503Z,103306.34
2023-02-04T06:44:34.305Z,103308.91
2023-02-04T06:47:01.377Z,103305.44
2023-02-04T06:49:28.105Z,103310.66
2023-02-04T06:51:55.468Z,103301.97
2023-02-04T06:54:22.280Z,103295.81
2023-02-04T06:56:49.356Z,103302.81
2023-02-04T06:59:16.127Z,103294.97
2023-02-04T07:01:42.962Z,103303.72
2023-02-04T07:04:09.775Z,103299.38
2023-02-04T07:06:36.477Z,103306.34
2023-02-04T07:09:03.892Z,103306.34
2023-02-04T07:11:30.624Z,103309.84
2023-02-04T07:13:57.306Z,103304.59
2023-02-04T07:16:24.053Z,103311.56
2023-02-04T07:18:50.861Z,103315.03
2023-02-04T07:21:17.576Z,103324.59
2023-02-04T07:23:44.321Z,103321.13
2023-02-04T07:26:11.071Z,103333.34
2023-02-04T07:28:37.794Z,103334.22
2023-02-04T07:31:04.794Z,103330.75
2023-02-04T07:33:31.611Z,103339.47
2023-02-04T07:35:58.389Z,103327.28
2023-02-04T07:38:25.172Z,103336.00
2023-02-04T07:40:51.890Z,103334.31
2023-02-04T07:43:18.892Z,103336.00
2023-02-04T07:45:45.655Z,103345.63
2023-02-04T07:48:12.362Z,103343.03
2023-02-04T07:50:39.108Z,103350.88
2023-02-04T07:53:05.901Z,103344.81
2023-02-04T07:55:32.683Z,103345.75
2023-02-04T07:57:59.558Z,103351.91
2023-02-04T08:00:26.286Z,103357.16
2023-02-04T08:02:53.082Z,103338.13
2023-02-04T08:05:19.874Z,103355.56
2023-02-04T08:07:46.684Z,103362.56
2023-02-04T08:10:13.677Z,103366.94
2023-02-04T08:12:40.417Z,103372.19
2023-02-04T08:15:08.923Z,103375.72
2023-02-04T08:17:36.312Z,103374.03
2023-02-04T08:20:03.921Z,103378.34
2023-02-04T08:22:30.658Z,103380.09
2023-02-04T08:24:57.411Z,103389.66
2023-02-04T08:27:24.144Z,103387.91
2023-02-04T08:29:50.937Z,103386.16
2023-02-04T08:32:17.685Z,103387.88
2023-02-04T08:34:44.499Z,103391.34
2023-02-04T08:37:11.302Z,103395.66
2023-02-04T08:39:38.600Z,103396.47
2023-02-04T08:42:05.581Z,103397.31
2023-02-04T08:44:32.340Z,103402.56
2023-02-04T08:46:59.127Z,103409.47
2023-02-04T08:49:25.853Z,103402.44
2023-02-04T08:51:52.706Z,103405.03
2023-02-04T08:54:19.518Z,103400.59
2023-02-04T08:56:46.218Z,103401.41
2023-02-04T08:59:13.054Z,103408.31
2023-02-04T09:01:39.861Z,103402.19
2023-02-04T09:04:06.692Z,103414.34
2023-02-04T09:06:33.449Z,103419.56
2023-02-04T09:09:00.176Z,103409.09
2023-02-04T09:11:27.131Z,103418.63
2023-02-04T09:13:56.152Z,103416.84
2023-02-04T09:16:23.202Z,103412.44
2023-02-04T09:18:49.934Z,103419.38
2023-02-04T09:21:16.715Z,103421.94
2023-02-04T09:23:44.678Z,103421.91
2023-02-04T09:26:11.508Z,103435.81
2023-02-04T09:28:38.472Z,103428.72
2023-02-04T09:31:06.627Z,103430.44
2023-02-04T09:33:34.156Z,103434.72
2023-02-04T09:36:01.243Z,103425.03
2023-02-04T09:38:28.020Z,103425.84
2023-02-04T09:40:57.949Z,103424.06
2023-02-04T09:43:29.755Z,103424.91
2023-02-04T09:45:57.605Z,103429.16
2023-02-04T09:48:25.362Z,103426.50
2023-02-04T09:50:53.787Z,103422.16
2023-02-04T09:53:24.310Z,103434.28
2023-02-04T09:55:52.015Z,103441.13
2023-02-04T09:58:21.722Z,103450.66
2023-02-04T10:00:56.946Z,103433.31
2023-02-04T10:03:23.941Z,103455.69
2023-02-04T10:05:51.772Z,103433.81
2023-02-04T10:08:28.196Z,103445.06
2023-02-04T10:10:56.780Z,103443.31
2023-02-04T10:13:33.049Z,103440.50
2023-02-04T10:16:01.556Z,103445.59
2023-02-04T10:18:31.905Z,103440.94
2023-02-04T10:21:12.699Z,103442.47
2023-02-04T10:23:39.969Z,103452.59
2023-02-04T10:26:06.744Z,103450.56
2023-02-04T10:28:37.666Z,103453.00
2023-02-04T10:31:04.699Z,103449.34
2023-02-04T10:33:32.058Z,103456.16
2023-02-04T10:35:58.880Z,103453.41
2023-02-04T10:38:25.647Z,103464.81
2023-02-04T10:41:05.803Z,103455.06
2023-02-04T10:43:32.725Z,103460.06
2023-02-04T10:46:03.012Z,103467.97
2023-02-04T10:48:31.217Z,103465.34
2023-02-04T10:50:59.374Z,103459.25
2023-02-04T10:53:45.367Z,103467.28
2023-02-04T10:56:19.212Z,103481.63
2023-02-04T10:58:46.061Z,103482.53
2023-02-04T11:01:16.128Z,103483.50
2023-02-04T11:03:45.865Z,103480.91
2023-02-04T11:06:20.495Z,103473.25
2023-02-04T11:08:48.522Z,103480.41
2023-02-04T11:11:16.831Z,103479.63
2023-02-04T11:13:50.798Z,103479.66
2023-02-04T11:16:17.737Z,103473.44
2023-02-04T11:18:57.071Z,103464.59
2023-02-04T11:21:26.530Z,103467.75
2023-02-04T11:24:14.184Z,103473.66
2023-02-04T11:26:44.816Z,103472.31
2023-02-04T11:29:17.414Z,103465.94
2023-02-04T11:31:50.474Z,103479.81
2023-02-04T11:34:18.680Z,103483.00
2023-02-04T11:37:10.357Z,103473.22
2023-02-04T11:39:46.758Z,103479.75
2023-02-04T11:42:24.538Z,103478.38
2023-02-04T11:44:54.131Z,103484.13
2023-02-04T11:47:24.436Z,103485.78
2023-02-04T11:50:01.820Z,103484.81
2023-02-04T11:52:28.604Z,103478.69
2023-02-04T11:54:59.712Z,103479.41
2023-02-04T11:57:27.158Z,103479.38
2023-02-04T11:59:54.632Z,103487.56
2023-02-04T12:02:26.102Z,103477.56
2023-02-04T12:04:58.694Z,103477.72
2023-02-04T12:07:28.413Z,103477.53
2023-02-04T12:09:56.150Z,103477.72
2023-02-04T12:12:31.005Z,103467.59
2023-02-04T12:15:02.729Z,103473.78
2023-02-04T12:17:29.781Z,103471.13
2023-02-04T12:19:56.579Z,103466.88
2023-02-04T12:22:23.305Z,103474.84
2023-02-04T12:24:50.064Z,103478.72
2023-02-04T12:27:16.966Z,103486.69
2023-02-04T12:29:43.768Z,103481.63
2023-02-04T12:32:10.560Z,103482.78
2023-02-04T12:34:37.349Z,103491.78
2023-02-04T12:37:04.099Z,103501.41
2023-02-04T12:39:32.087Z,103491.75
2023-02-04T12:41:59.166Z,103497.09
2023-02-04T12:44:25.980Z,103499.03
2023-02-04T12:46:52.963Z,103485.47
2023-02-04T12:49:19.776Z,103506.34
2023-02-04T12:51:46.476Z,103502.81
2023-02-04T12:54:13.221Z,103509.06
2023-02-04T12:56:39.989Z,103515.19
2023-02-04T12:59:06.744Z,103513.56
2023-02-04T13:01:33.820Z,103517.16
2023-02-04T13:04:00.727Z,103526.84
2023-02-04T13:06:27.490Z,103533.00
2023-02-04T13:08:54.244Z,103514.59
2023-02-04T13:11:21.090Z,103524.09
2023-02-04T13:13:47.794Z,103526.56
2023-02-04T13:16:14.620Z,103526.53
2023-02-04T13:18:41.396Z,103534.38
2023-02-04T13:21:08.145Z,103538.88
2023-02-04T13:23:34.962Z,103539.94
2023-02-04T13:26:01.769Z,103554.19
2023-02-04T13:28:28.548Z,103559.66
2023-02-04T13:30:55.314Z,103555.56
2023-02-04T13:33:22.153Z,103562.66
2023-02-04T13:35:48.868Z,103568.97
2023-02-04T13:38:15.580Z,103571.81
2023-02-04T13:40:42.405Z,103567.69
2023-02-04T13:43:09.412Z,103576.56
2023-02-04T13:45:36.335Z,103581.94
2023-02-04T13:48:03.359Z,103590.75
2023-02-04T13:50:30.351Z,103594.38
2023-02-04T13:52:57.246Z,103598.00
2023-02-04T13:55:24.617Z,103618.25
2023-02-04T13:57:51.371Z,103620.56
2023-02-04T14:00:18.377Z,103628.88
2023-02-04T14:02:45.260Z,103634.31
2023-02-04T14:05:12.160Z,103633.63
2023-02-04T14:07:38.876Z,103645.16
2023-02-04T14:10:06.147Z,103647.00
2023-02-04T14:12:32.903Z,103657.50
2023-02-04T14:14:59.651Z,103661.88
2023-02-04T14:17:26.444Z,103667.97
2023-02-04T14:19:53.226Z,103670.63
2023-02-04T14:22:20.026Z,103670.69
2023-02-04T14:24:47.722Z,103682.16
2023-02-04T14:27:14.631Z,103695.38
2023-02-04T14:29:41.356Z,103692.84
2023-02-04T14:32:08.556Z,103706.97
2023-02-04T14:34:35.360Z,103708.81
2023-02-04T14:37:02.115Z,103720.25
2023-02-04T14:39:28.879Z,103719.41
2023-02-04T14:41:55.640Z,103728.13
2023-02-04T14:44:22.375Z,103732.50
2023-02-04T14:46:49.555Z,103736.81
2023-02-04T14:49:17.010Z,103741.25
2023-02-04T14:51:43.935Z,103744.75
2023-02-04T14:54:11.308Z,103747.38
2023-02-04T14:56:38.320Z,103757.84
2023-02-04T14:59:05.353Z,103768.31
2023-02-04T15:01:32.548Z,103766.63
2023-02-04T15:03:59.411Z,103785.78
2023-02-04T15:06:26.242Z,103784.09
2023-02-04T15:08:53.166Z,103792.81
2023-02-04T15:11:19.931Z,103804.19
2023-02-04T15:13:46.747Z,103812.06
2023-02-04T15:16:14.950Z,103824.31
2023-02-04T15:18:42.238Z,103833.03
2023-02-04T15:21:09.197Z,103836.56
2023-02-04T15:23:36.007Z,103851.41
2023-02-04T15:26:03.430Z,103859.28
2023-02-04T15:28:31.128Z,103851.44
2023-02-04T15:30:58.535Z,103859.25
2023-02-04T15:33:25.629Z,103872.38
2023-02-04T15:35:52.367Z,103868.91
2023-02-04T15:38:19.131Z,103890.66
2023-02-04T15:40:45.897Z,103896.78
2023-02-04T15:43:12.710Z,103902.00
2023-02-04T15:45:41.626Z,103906.34
2023-02-04T15:48:08.694Z,103914.22
2023-02-04T15:50:35.860Z,103914.22
2023-02-04T15:53:03.072Z,103921.19
2023-02-04T15:55:30.148Z,103929.06
2023-02-04T15:57:56.959Z,103939.50
2023-02-04T16:00:24.315Z,103948.25
2023-02-04T16:02:51.121Z,103950.84
2023-02-04T16:05:18.034Z,103951.72
2023-02-04T16:07:44.904Z,103965.66
2023-02-04T16:10:11.724Z,103968.28
2023-02-04T16:12:38.510Z,103975.22
2023-02-04T16:15:06.027Z,103959.53
2023-02-04T16:17:32.772Z,103974.38
2023-02-04T16:19:59.512Z,103975.22
2023-02-04T16:22:26.401Z,103975.22
2023-02-04T16:24:53.302Z,103982.22
2023-02-04T16:27:20.172Z,103986.56
2023-02-04T16:29:47.030Z,103992.66
2023-02-04T16:32:14.603Z,103980.41
2023-02-04T16:34:41.924Z,103996.09
2023-02-04T16:37:08.699Z,103996.09
2023-02-04T16:39:39.009Z,103989.09
2023-02-04T16:42:08.827Z,103998.69
2023-02-04T16:44:39.032Z,104005.66
2023-02-04T16:47:06.730Z,103999.53
2023-02-04T16:49:33.632Z,103999.50
2023-02-04T16:52:04.375Z,104005.56
2023-02-04T16:54:32.327Z,104009.03
2023-02-04T16:57:03.513Z,104026.44
2023-02-04T16:59:31.976Z,104028.16
2023-02-04T17:02:00.819Z,104040.34
2023-02-04T17:04:28.253Z,104037.72
2023-02-04T17:06:55.096Z,104053.34
2023-02-04T17:09:21.947Z,104063.75
2023-02-04T17:11:48.767Z,104068.00
2023-02-04T17:14:16.069Z,104053.94
2023-02-04T17:16:47.902Z,104056.47
2023-02-04T17:19:17.658Z,104051.09
2023-02-04T17:21:45.384Z,104046.59
2023-02-04T17:24:12.327Z,104049.06
2023-02-04T17:26:40.534Z,104050.72
2023-02-04T17:29:17.436Z,104058.41
2023-02-04T17:31:44.633Z,104058.38
2023-02-04T17:34:11.687Z,104059.13
2023-02-04T17:36:39.058Z,104073.84
2023-02-04T17:39:07.705Z,104074.59
2023-02-04T17:41:34.662Z,104089.38
2023-02-04T17:44:03.471Z,104098.06
2023-02-04T17:46:31.347Z,104092.75
2023-02-04T17:48:58.837Z,104114.34
2023-02-04T17:51:25.923Z,104109.91
2023-02-04T17:53:52.748Z,104116.72
2023-02-04T17:56:21.595Z,104128.72
2023-02-04T17:58:48.454Z,104139.06
2023-02-04T18:01:18.986Z,104151.13
2023-02-04T18:03:48.784Z,104155.34
2023-02-04T18:06:29.127Z,104151.81
2023-02-04T18:09:02.187Z,104162.13
2023-02-04T18:11:38.143Z,104158.53
2023-02-04T18:14:17.649Z,104167.06
2023-02-04T18:16:44.915Z,104165.19
2023-02-04T18:19:24.349Z,104180.75
2023-02-04T18:21:51.494Z,104176.28
2023-02-04T18:24:27.284Z,104182.34
2023-02-04T18:26:56.461Z,104192.81
2023-02-04T18:29:36.479Z,104188.53
2023-02-04T18:32:14.373Z,104189.50
2023-02-04T18:34:45.231Z,104202.53
2023-02-04T18:37:33.896Z,104213.97
2023-02-04T18:40:22.416Z,104203.69
2023-02-04T18:42:50.077Z,104208.97
2023-02-04T18:45:27.594Z,104222.13
2023-02-04T18:47:59.447Z,104224.81
2023-02-04T18:50:28.289Z,104237.84
2023-02-04T18:53:21.194Z,104229.94
2023-02-04T18:56:12.756Z,104233.16
2023-02-04T18:58:45.178Z,104222.16
2023-02-04T19:01:12.712Z,104240.31
2023-02-04T19:03:57.798Z,104244.41
2023-02-04T19:06:24.637Z,104252.72
2023-02-04T19:08:51.591Z,104258.63
2023-02-04T19:11:38.671Z,104249.88
2023-02-04T19:14:25.173Z,104257.53
2023-02-04T19:16:54.391Z,104253.00
2023-02-04T19:19:39.511Z,104267.81
2023-02-04T19:22:43.831Z,104265.19
2023-02-04T19:25:19.703Z,104284.69
2023-02-04T19:27:50.514Z,104284.19
2023-02-04T19:30:44.412Z,104284.69
2023-02-04T19:33:17.652Z,104279.13
2023-02-04T19:35:46.333Z,104280.47
2023-02-04T19:38:25.065Z,104280.97
2023-02-04T19:40:53.229Z,104291.91
2023-02-04T19:43:37.858Z,104292.53
2023-02-04T19:46:24.097Z,104299.91
2023-02-04T19:48:52.013Z,104301.31
2023-02-04T19:51:27.697Z,104301.88
2023-02-04T19:54:17.656Z,104298.19
2023-02-04T19:56:44.496Z,104301.31
2023-02-04T19:59:27.209Z,104310.66
2023-02-04T20:02:17.587Z,104311.19
2023-02-04T20:04:48.728Z,104312.69
2023-02-04T20:07:27.072Z,104310.75
2023-02-04T20:09:59.783Z,104308.03
2023-02-04T20:12:29.724Z,104307.94
2023-02-04T20:14:57.692Z,104314.91
2023-02-04T20:17:33.490Z,104314.97
2023-02-04T20:20:31.058Z,104322.84
2023-02-04T20:23:02.397Z,104314.16
2023-02-04T20:25:39.438Z,104303.72
2023-02-04T20:28:18.948Z,104305.38
2023-02-04T20:30:46.746Z,104320.56
2023-02-04T20:33:31.555Z,104320.34
2023-02-04T20:36:27.352Z,104285.63
2023-02-04T20:39:37.185Z,104290.69
2023-02-04T20:42:26.723Z,104292.34
2023-02-04T20:44:54.023Z,104286.97
2023-02-04T20:47:25.910Z,104276.44
2023-02-04T20:49:56.402Z,104272.03
2023-02-04T20:52:41.118Z,104286.16
2023-02-04T20:55:22.948Z,104298.03
2023-02-04T20:57:52.794Z,104304.41
2023-02-04T21:00:32.377Z,104305.72
2023-02-04T21:03:18.063Z,104311.97
2023-02-04T21:05:45.042Z,104301.53
2023-02-04T21:08:20.907Z,104302.34
2023-02-04T21:10:48.068Z,104311.31
2023-02-04T21:13:14.803Z,104326.38
2023-02-04T21:15:41.566Z,104333.75
2023-02-04T21:18:08.824Z,104331.63
2023-02-04T21:20:37.217Z,104348.41
2023-02-04T21:23:05.143Z,104360.22
2023-02-04T21:25:32.701Z,104370.47
2023-02-04T21:27:59.619Z,104363.13
2023-02-04T21:30:30.265Z,104366.34
2023-02-04T21:32:58.035Z,104352.13
2023-02-04T21:35:25.040Z,104355.22
2023-02-04T21:37:53.017Z,104375.06
2023-02-04T21:40:24.379Z,104386.59
2023-02-04T21:42:51.832Z,104389.84
2023-02-04T21:45:20.339Z,104387.66
2023-02-04T21:47:48.085Z,104394.97
2023-02-04T21:50:16.894Z,104405.66
2023-02-04T21:52:44.138Z,104421.06
2023-02-04T21:55:12.762Z,104422.94
2023-02-04T21:57:39.745Z,104408.66
2023-02-04T22:00:08.011Z,104395.47
2023-02-04T22:02:35.009Z,104392.47
2023-02-04T22:05:04.221Z,104390.81
2023-02-04T22:07:32.269Z,104397.31
2023-02-04T22:09:59.048Z,104402.91
2023-02-04T22:12:25.770Z,104398.13
2023-02-04T22:14:52.499Z,104401.13
2023-02-04T22:17:19.276Z,104407.03
2023-02-04T22:19:45.988Z,104421.00
2023-02-04T22:22:12.718Z,104431.00
2023-02-04T22:24:39.470Z,104450.00
2023-02-04T22:27:06.753Z,104460.19
2023-02-04T22:29:33.724Z,104465.63
2023-02-04T22:32:01.268Z,104465.78
2023-02-04T22:34:28.161Z,104475.47
2023-02-04T22:36:55.690Z,104486.53
2023-02-04T22:39:22.491Z,104489.56
2023-02-04T22:41:49.406Z,104490.22
2023-02-04T22:44:16.440Z,104487.78
2023-02-04T22:46:43.638Z,104498.25
2023-02-04T22:49:11.211Z,104508.69
2023-02-04T22:51:37.984Z,104515.31
2023-02-04T22:54:04.886Z,104515.31
2023-02-04T22:56:31.684Z,104522.44
2023-02-04T22:58:58.417Z,104533.59
2023-02-04T23:01:25.191Z,104531.25
2023-02-04T23:03:51.969Z,104539.69
2023-02-04T23:06:18.786Z,104540.00
2023-02-04T23:08:46.902Z,104548.84
2023-02-04T23:11:13.646Z,104543.25
2023-02-04T23:13:40.495Z,104548.94
2023-02-04T23:16:07.576Z,104548.56
2023-02-04T23:18:34.349Z,104551.72
2023-02-04T23:21:01.177Z,104556.75
2023-02-04T23:23:29.653Z,104552.38
2023-02-04T23:26:00.548Z,104556.28
2023-02-04T23:28:27.410Z,104547.44
2023-02-04T23:30:54.201Z,104536.41
2023-02-04T23:33:21.031Z,104522.91
2023-02-04T23:35:48.026Z,104534.53
2023-02-04T23:38:14.893Z,104526.44
2023-02-04T23:40:41.800Z,104534.97
2023-02-04T23:43:10.778Z,104534.97
2023-02-04T23:45:37.951Z,104536.53
2023-02-04T23:48:05.351Z,104532.19
2023-02-04T23:50:32.122Z,104523.63
2023-02-04T23:52:59.005Z,104521.72
2023-02-04T23:55:25.724Z,104514.34
2023-02-04T23:57:52.535Z,104498.50
